sensor_id;sensor_type;location;lat;lon;timestamp;pressure;altitude;pressure_sealevel;temperature;humidity
60715;BME280;46564;53.096;8.246;2022-11-15T00:00:01;100816.31;;;6.28;90.26
60715;BME280;46564;53.096;8.246;2022-11-15T00:05:21;100820.63;;;6.28;90.33
60715;BME280;46564;53.096;8.246;2022-11-15T00:10:41;100820.31;;;6.18;90.42
60715;BME280;46564;53.096;8.246;2022-11-15T00:16:02;100815.63;;;6.08;90.64
60715;BME280;46564;53.096;8.246;2022-11-15T00:21:22;100821.34;;;5.99;90.60
60715;BME280;46564;53.096;8.246;2022-11-15T00:26:42;100818.44;;;5.92;90.74
60715;BME280;46564;53.096;8.246;2022-11-15T00:32:03;100817.50;;;5.90;91.08
60715;BME280;46564;53.096;8.246;2022-11-15T00:37:23;100822.41;;;5.82;91.25
60715;BME280;46564;53.096;8.246;2022-11-15T00:42:43;100818.72;;;5.75;91.35
60715;BME280;46564;53.096;8.246;2022-11-15T00:48:03;100826.19;;;5.66;91.47
60715;BME280;46564;53.096;8.246;2022-11-15T00:53:24;100817.34;;;5.62;91.63
60715;BME280;46564;53.096;8.246;2022-11-15T00:58:44;100822.97;;;5.51;91.68
60715;BME280;46564;53.096;8.246;2022-11-15T01:04:04;100815.28;;;5.31;91.82
60715;BME280;46564;53.096;8.246;2022-11-15T01:09:24;100823.44;;;5.18;91.81
60715;BME280;46564;53.096;8.246;2022-11-15T01:14:44;100816.25;;;5.10;92.18
60715;BME280;46564;53.096;8.246;2022-11-15T01:20:04;100810.53;;;4.98;92.19
60715;BME280;46564;53.096;8.246;2022-11-15T01:25:25;100807.66;;;4.90;92.37
60715;BME280;46564;53.096;8.246;2022-11-15T01:30:45;100797.91;;;4.85;92.58
60715;BME280;46564;53.096;8.246;2022-11-15T01:36:07;100777.47;;;4.71;92.65
60715;BME280;46564;53.096;8.246;2022-11-15T01:41:31;100780.59;;;4.63;92.85
60715;BME280;46564;53.096;8.246;2022-11-15T01:46:51;100774.50;;;4.62;92.95
60715;BME280;46564;53.096;8.246;2022-11-15T01:52:15;100759.06;;;4.65;92.96
60715;BME280;46564;53.096;8.246;2022-11-15T01:57:39;100760.16;;;4.70;93.12
60715;BME280;46564;53.096;8.246;2022-11-15T02:03:01;100752.69;;;4.78;93.37
60715;BME280;46564;53.096;8.246;2022-11-15T02:08:22;100745.25;;;4.87;93.47
60715;BME280;46564;53.096;8.246;2022-11-15T02:13:43;100736.94;;;4.96;93.61
60715;BME280;46564;53.096;8.246;2022-11-15T02:25:14;100736.03;;;5.17;93.91
60715;BME280;46564;53.096;8.246;2022-11-15T02:30:57;100738.00;;;5.24;93.99
60715;BME280;46564;53.096;8.246;2022-11-15T02:36:37;100729.78;;;5.36;94.00
60715;BME280;46564;53.096;8.246;2022-11-15T02:42:04;100726.66;;;5.44;94.02
60715;BME280;46564;53.096;8.246;2022-11-15T02:47:47;100720.16;;;5.56;94.08
60715;BME280;46564;53.096;8.246;2022-11-15T02:53:10;100727.31;;;5.63;94.24
60715;BME280;46564;53.096;8.246;2022-11-15T02:58:56;100724.44;;;5.79;94.01
60715;BME280;46564;53.096;8.246;2022-11-15T03:04:53;100731.25;;;6.00;94.19
60715;BME280;46564;53.096;8.246;2022-11-15T03:10:33;100726.47;;;6.12;94.16
60715;BME280;46564;53.096;8.246;2022-11-15T03:16:10;100725.03;;;6.21;93.77
60715;BME280;46564;53.096;8.246;2022-11-15T03:21:33;100718.41;;;6.30;94.11
60715;BME280;46564;53.096;8.246;2022-11-15T03:26:55;100711.09;;;6.44;93.63
60715;BME280;46564;53.096;8.246;2022-11-15T03:32:22;100710.59;;;6.56;93.64
60715;BME280;46564;53.096;8.246;2022-11-15T03:38:04;100700.63;;;6.70;93.48
60715;BME280;46564;53.096;8.246;2022-11-15T03:49:24;100691.59;;;6.87;93.07
60715;BME280;46564;53.096;8.246;2022-11-15T03:54:55;100695.28;;;6.94;93.08
60715;BME280;46564;53.096;8.246;2022-11-15T04:00:16;100694.50;;;6.97;92.83
60715;BME280;46564;53.096;8.246;2022-11-15T04:05:36;100701.63;;;7.04;92.70
60715;BME280;46564;53.096;8.246;2022-11-15T04:10:56;100695.03;;;7.15;92.67
60715;BME280;46564;53.096;8.246;2022-11-15T04:16:18;100697.88;;;7.23;92.63
60715;BME280;46564;53.096;8.246;2022-11-15T04:21:38;100695.53;;;7.32;92.45
60715;BME280;46564;53.096;8.246;2022-11-15T04:27:17;100684.44;;;7.39;92.49
60715;BME280;46564;53.096;8.246;2022-11-15T04:32:37;100696.03;;;7.49;92.20
60715;BME280;46564;53.096;8.246;2022-11-15T04:37:58;100706.63;;;7.55;91.95
60715;BME280;46564;53.096;8.246;2022-11-15T04:43:18;100694.66;;;7.64;91.79
60715;BME280;46564;53.096;8.246;2022-11-15T04:48:38;100707.03;;;7.71;91.72
60715;BME280;46564;53.096;8.246;2022-11-15T04:53:58;100702.84;;;7.77;91.43
60715;BME280;46564;53.096;8.246;2022-11-15T04:59:18;100700.56;;;7.88;91.53
60715;BME280;46564;53.096;8.246;2022-11-15T05:04:39;100696.41;;;7.96;91.36
60715;BME280;46564;53.096;8.246;2022-11-15T05:09:59;100688.84;;;8.06;91.07
60715;BME280;46564;53.096;8.246;2022-11-15T05:15:19;100687.16;;;8.08;91.32
60715;BME280;46564;53.096;8.246;2022-11-15T05:20:39;100687.31;;;8.14;91.13
60715;BME280;46564;53.096;8.246;2022-11-15T05:26:00;100684.97;;;8.25;91.11
60715;BME280;46564;53.096;8.246;2022-11-15T05:31:27;100676.38;;;8.29;91.13
60715;BME280;46564;53.096;8.246;2022-11-15T05:36:48;100671.38;;;8.38;91.05
60715;BME280;46564;53.096;8.246;2022-11-15T05:42:13;100673.31;;;8.44;91.13
60715;BME280;46564;53.096;8.246;2022-11-15T05:47:35;100662.94;;;8.47;91.19
60715;BME280;46564;53.096;8.246;2022-11-15T05:52:57;100672.44;;;8.45;91.08
60715;BME280;46564;53.096;8.246;2022-11-15T05:58:23;100681.41;;;8.56;91.19
60715;BME280;46564;53.096;8.246;2022-11-15T06:03:43;100686.72;;;8.59;91.09
60715;BME280;46564;53.096;8.246;2022-11-15T06:09:04;100688.72;;;8.71;91.34
60715;BME280;46564;53.096;8.246;2022-11-15T06:14:24;100687.19;;;8.81;91.27
60715;BME280;46564;53.096;8.246;2022-11-15T06:19:44;100689.00;;;8.83;91.10
60715;BME280;46564;53.096;8.246;2022-11-15T06:25:04;100696.13;;;8.91;90.88
60715;BME280;46564;53.096;8.246;2022-11-15T06:30:25;100698.00;;;8.96;91.00
60715;BME280;46564;53.096;8.246;2022-11-15T06:35:45;100688.66;;;9.08;91.01
60715;BME280;46564;53.096;8.246;2022-11-15T06:41:07;100691.19;;;9.05;90.74
60715;BME280;46564;53.096;8.246;2022-11-15T06:46:28;100697.44;;;9.10;90.88
60715;BME280;46564;53.096;8.246;2022-11-15T06:51:48;100703.56;;;9.12;90.84
60715;BME280;46564;53.096;8.246;2022-11-15T06:57:08;100698.53;;;9.21;90.84
60715;BME280;46564;53.096;8.246;2022-11-15T07:02:28;100710.78;;;9.24;90.71
60715;BME280;46564;53.096;8.246;2022-11-15T07:07:53;100703.03;;;9.28;90.85
60715;BME280;46564;53.096;8.246;2022-11-15T07:13:13;100712.75;;;9.34;90.85
60715;BME280;46564;53.096;8.246;2022-11-15T07:18:34;100709.41;;;9.43;90.68
60715;BME280;46564;53.096;8.246;2022-11-15T07:23:55;100707.78;;;9.48;90.68
60715;BME280;46564;53.096;8.246;2022-11-15T07:29:15;100715.75;;;9.54;90.64
60715;BME280;46564;53.096;8.246;2022-11-15T07:34:35;100722.00;;;9.62;90.80
60715;BME280;46564;53.096;8.246;2022-11-15T07:39:55;100714.16;;;9.62;90.60
60715;BME280;46564;53.096;8.246;2022-11-15T07:45:15;100721.19;;;9.65;90.62
60715;BME280;46564;53.096;8.246;2022-11-15T07:50:36;100721.25;;;9.68;90.71
60715;BME280;46564;53.096;8.246;2022-11-15T07:55:55;100720.44;;;9.70;90.77
60715;BME280;46564;53.096;8.246;2022-11-15T08:01:16;100716.34;;;9.83;90.61
60715;BME280;46564;53.096;8.246;2022-11-15T08:06:37;100703.34;;;9.88;90.70
60715;BME280;46564;53.096;8.246;2022-11-15T08:11:57;100700.09;;;10.01;90.64
60715;BME280;46564;53.096;8.246;2022-11-15T08:17:17;100703.72;;;10.09;90.54
60715;BME280;46564;53.096;8.246;2022-11-15T08:22:37;100713.50;;;10.20;90.22
60715;BME280;46564;53.096;8.246;2022-11-15T08:27:59;100705.75;;;10.26;90.12
60715;BME280;46564;53.096;8.246;2022-11-15T08:33:20;100706.63;;;10.26;89.82
60715;BME280;46564;53.096;8.246;2022-11-15T08:38:40;100718.78;;;10.23;89.92
60715;BME280;46564;53.096;8.246;2022-11-15T08:44:00;100714.28;;;10.16;89.86
60715;BME280;46564;53.096;8.246;2022-11-15T08:49:20;100717.75;;;10.15;89.91
60715;BME280;46564;53.096;8.246;2022-11-15T08:54:40;100722.88;;;10.08;90.14
60715;BME280;46564;53.096;8.246;2022-11-15T09:00:00;100714.22;;;10.13;90.29
60715;BME280;46564;53.096;8.246;2022-11-15T09:05:20;100718.69;;;10.17;90.41
60715;BME280;46564;53.096;8.246;2022-11-15T09:10:40;100710.13;;;10.27;90.38
60715;BME280;46564;53.096;8.246;2022-11-15T09:16:01;100704.47;;;10.53;90.59
60715;BME280;46564;53.096;8.246;2022-11-15T09:21:21;100699.69;;;10.84;90.51
60715;BME280;46564;53.096;8.246;2022-11-15T09:26:41;100698.22;;;11.03;90.01
60715;BME280;46564;53.096;8.246;2022-11-15T09:32:01;100710.63;;;11.14;89.67
60715;BME280;46564;53.096;8.246;2022-11-15T09:37:21;100704.53;;;11.16;89.33
60715;BME280;46564;53.096;8.246;2022-11-15T09:48:51;100699.38;;;11.22;88.92
60715;BME280;46564;53.096;8.246;2022-11-15T09:54:30;100702.00;;;11.23;88.55
60715;BME280;46564;53.096;8.246;2022-11-15T10:00:21;100690.88;;;11.43;88.48
60715;BME280;46564;53.096;8.246;2022-11-15T10:05:49;100689.28;;;11.57;88.28
60715;BME280;46564;53.096;8.246;2022-11-15T10:11:01;100689.28;;;11.57;88.28
60715;BME280;46564;53.096;8.246;2022-11-15T10:27:25;100675.91;;;12.12;86.47
60715;BME280;46564;53.096;8.246;2022-11-15T10:32:26;100671.50;;;12.11;86.18
60715;BME280;46564;53.096;8.246;2022-11-15T10:37:29;100667.16;;;12.12;86.04
60715;BME280;46564;53.096;8.246;2022-11-15T10:42:31;100654.03;;;12.13;85.97
60715;BME280;46564;53.096;8.246;2022-11-15T10:47:32;100650.53;;;12.14;85.66
60715;BME280;46564;53.096;8.246;2022-11-15T10:52:45;100635.72;;;12.19;85.65
60715;BME280;46564;53.096;8.246;2022-11-15T10:58:03;100627.06;;;12.31;85.68
60715;BME280;46564;53.096;8.246;2022-11-15T11:03:28;100625.38;;;12.46;85.55
60715;BME280;46564;53.096;8.246;2022-11-15T11:08:31;100615.88;;;12.60;85.24
60715;BME280;46564;53.096;8.246;2022-11-15T11:13:37;100600.19;;;12.79;84.91
60715;BME280;46564;53.096;8.246;2022-11-15T11:24:42;100607.25;;;12.87;84.12
60715;BME280;46564;53.096;8.246;2022-11-15T11:30:14;100601.06;;;12.73;83.92
60715;BME280;46564;53.096;8.246;2022-11-15T11:40:29;100602.97;;;13.13;83.58
60715;BME280;46564;53.096;8.246;2022-11-15T11:50:47;100597.88;;;13.53;82.27
60715;BME280;46564;53.096;8.246;2022-11-15T11:55:53;100593.47;;;13.56;81.79
60715;BME280;46564;53.096;8.246;2022-11-15T12:06:31;100587.34;;;13.48;81.00
60715;BME280;46564;53.096;8.246;2022-11-15T12:16:59;100561.91;;;13.47;80.29
60715;BME280;46564;53.096;8.246;2022-11-15T12:22:21;100561.03;;;13.53;80.07
60715;BME280;46564;53.096;8.246;2022-11-15T12:27:39;100562.81;;;13.66;79.75
60715;BME280;46564;53.096;8.246;2022-11-15T12:32:58;100547.88;;;13.82;78.80
60715;BME280;46564;53.096;8.246;2022-11-15T12:38:00;100539.13;;;13.86;78.03
60715;BME280;46564;53.096;8.246;2022-11-15T12:58:47;100523.34;;;13.65;75.28
60715;BME280;46564;53.096;8.246;2022-11-15T13:24:56;100549.53;;;13.12;74.93
60715;BME280;46564;53.096;8.246;2022-11-15T13:29:58;100539.91;;;13.30;75.01
60715;BME280;46564;53.096;8.246;2022-11-15T13:35:00;100533.84;;;13.52;74.59
60715;BME280;46564;53.096;8.246;2022-11-15T13:40:22;100535.59;;;13.63;73.96
60715;BME280;46564;53.096;8.246;2022-11-15T13:45:24;100525.97;;;13.65;73.28
60715;BME280;46564;53.096;8.246;2022-11-15T13:50:31;100521.59;;;13.57;72.70
60715;BME280;46564;53.096;8.246;2022-11-15T13:55:34;100528.59;;;13.49;72.47
60715;BME280;46564;53.096;8.246;2022-11-15T14:00:41;100521.50;;;13.31;72.50
60715;BME280;46564;53.096;8.246;2022-11-15T14:06:08;100511.84;;;13.15;72.52
60715;BME280;46564;53.096;8.246;2022-11-15T14:11:20;100501.28;;;12.96;72.54
60715;BME280;46564;53.096;8.246;2022-11-15T14:16:35;100502.13;;;12.81;72.79
60715;BME280;46564;53.096;8.246;2022-11-15T14:27:28;100498.56;;;12.70;73.07
60715;BME280;46564;53.096;8.246;2022-11-15T14:32:37;100493.19;;;12.39;73.70
60715;BME280;46564;53.096;8.246;2022-11-15T14:37:42;100500.09;;;12.25;73.96
60715;BME280;46564;53.096;8.246;2022-11-15T14:42:45;100493.03;;;12.14;74.12
60715;BME280;46564;53.096;8.246;2022-11-15T14:47:47;100488.63;;;12.01;74.34
60715;BME280;46564;53.096;8.246;2022-11-15T14:52:49;100478.88;;;11.88;74.67
60715;BME280;46564;53.096;8.246;2022-11-15T14:57:51;57128.34;;;-147.53;nan
60715;BME280;46564;53.096;8.246;2022-11-15T15:02:53;100459.44;;;11.59;74.90
60715;BME280;46564;53.096;8.246;2022-11-15T15:07:55;100454.09;;;11.48;75.19
60715;BME280;46564;53.096;8.246;2022-11-15T15:12:57;100454.09;;;11.48;75.19
60715;BME280;46564;53.096;8.246;2022-11-15T15:17:59;100439.88;;;11.19;75.76
60715;BME280;46564;53.096;8.246;2022-11-15T15:23:00;100430.16;;;11.07;76.19
60715;BME280;46564;53.096;8.246;2022-11-15T15:28:02;100424.78;;;10.93;76.40
60715;BME280;46564;53.096;8.246;2022-11-15T15:33:03;100426.38;;;10.78;76.89
60715;BME280;46564;53.096;8.246;2022-11-15T15:38:05;100422.00;;;10.77;76.83
60715;BME280;46564;53.096;8.246;2022-11-15T15:43:06;100417.50;;;10.66;76.69
60715;BME280;46564;53.096;8.246;2022-11-15T15:48:16;100409.44;;;10.47;76.73
60715;BME280;46564;53.096;8.246;2022-11-15T15:53:18;100410.84;;;10.22;76.90
60715;BME280;46564;53.096;8.246;2022-11-15T15:58:19;100406.19;;;9.98;77.39
60715;BME280;46564;53.096;8.246;2022-11-15T16:03:21;100408.56;;;9.81;77.93
60715;BME280;46564;53.096;8.246;2022-11-15T16:08:24;100409.13;;;9.58;78.05
60715;BME280;46564;53.096;8.246;2022-11-15T16:13:27;100406.22;;;9.40;78.55
60715;BME280;46564;53.096;8.246;2022-11-15T16:18:29;100398.97;;;9.23;78.99
60715;BME280;46564;53.096;8.246;2022-11-15T16:23:31;100391.81;;;9.10;79.40
60715;BME280;46564;53.096;8.246;2022-11-15T16:28:33;100387.09;;;8.90;79.82
60715;BME280;46564;53.096;8.246;2022-11-15T16:33:35;100387.78;;;8.78;80.18
60715;BME280;46564;53.096;8.246;2022-11-15T16:38:37;100379.06;;;8.78;80.70
60715;BME280;46564;53.096;8.246;2022-11-15T16:43:40;100369.56;;;8.81;81.09
60715;BME280;46564;53.096;8.246;2022-11-15T16:48:41;100370.34;;;8.77;81.30
60715;BME280;46564;53.096;8.246;2022-11-15T16:53:43;100373.00;;;8.79;81.55
60715;BME280;46564;53.096;8.246;2022-11-15T16:58:45;100356.47;;;8.78;81.71
60715;BME280;46564;53.096;8.246;2022-11-15T17:03:46;100356.53;;;8.83;82.05
60715;BME280;46564;53.096;8.246;2022-11-15T17:08:48;100351.56;;;8.98;82.36
60715;BME280;46564;53.096;8.246;2022-11-15T17:13:49;100343.09;;;9.12;82.88
60715;BME280;46564;53.096;8.246;2022-11-15T17:18:51;100344.06;;;9.20;82.79
60715;BME280;46564;53.096;8.246;2022-11-15T17:23:53;100338.13;;;9.30;83.10
60715;BME280;46564;53.096;8.246;2022-11-15T17:28:55;100339.13;;;9.37;83.45
60715;BME280;46564;53.096;8.246;2022-11-15T17:33:57;100335.94;;;9.60;83.73
60715;BME280;46564;53.096;8.246;2022-11-15T17:38:58;100331.94;;;9.85;83.83
60715;BME280;46564;53.096;8.246;2022-11-15T17:44:00;100334.69;;;9.96;83.88
60715;BME280;46564;53.096;8.246;2022-11-15T17:49:03;100332.09;;;9.97;83.94
60715;BME280;46564;53.096;8.246;2022-11-15T17:54:05;100330.38;;;10.02;84.09
60715;BME280;46564;53.096;8.246;2022-11-15T17:59:07;100331.34;;;10.09;84.11
60715;BME280;46564;53.096;8.246;2022-11-15T18:04:16;100324.38;;;10.11;84.34
60715;BME280;46564;53.096;8.246;2022-11-15T18:09:17;100325.25;;;10.12;84.42
60715;BME280;46564;53.096;8.246;2022-11-15T18:14:19;100313.16;;;10.20;84.38
60715;BME280;46564;53.096;8.246;2022-11-15T18:19:21;100318.41;;;10.23;84.51
60715;BME280;46564;53.096;8.246;2022-11-15T18:24:31;100308.78;;;10.20;84.58
60715;BME280;46564;53.096;8.246;2022-11-15T18:29:34;100312.31;;;10.21;84.83
60715;BME280;46564;53.096;8.246;2022-11-15T18:34:38;100293.97;;;10.18;84.82
60715;BME280;46564;53.096;8.246;2022-11-15T18:39:39;100299.31;;;10.30;85.01
60715;BME280;46564;53.096;8.246;2022-11-15T18:44:41;100296.63;;;10.24;85.12
60715;BME280;46564;53.096;8.246;2022-11-15T18:49:42;100286.22;;;10.30;85.15
60715;BME280;46564;53.096;8.246;2022-11-15T18:54:44;100275.00;;;10.37;85.36
60715;BME280;46564;53.096;8.246;2022-11-15T18:59:45;100263.72;;;10.48;85.15
60715;BME280;46564;53.096;8.246;2022-11-15T19:04:47;100274.22;;;10.49;85.25
60715;BME280;46564;53.096;8.246;2022-11-15T19:09:48;100274.28;;;10.55;84.95
60715;BME280;46564;53.096;8.246;2022-11-15T19:14:50;100270.84;;;10.63;84.95
60715;BME280;46564;53.096;8.246;2022-11-15T19:19:52;100265.66;;;10.70;84.96
60715;BME280;46564;53.096;8.246;2022-11-15T19:24:53;100253.53;;;10.80;84.76
60715;BME280;46564;53.096;8.246;2022-11-15T19:29:54;100258.00;;;10.92;84.39
60715;BME280;46564;53.096;8.246;2022-11-15T19:34:56;100251.03;;;10.95;84.23
60715;BME280;46564;53.096;8.246;2022-11-15T19:39:58;100251.06;;;11.03;84.01
60715;BME280;46564;53.096;8.246;2022-11-15T19:44:59;100252.00;;;11.11;83.78
60715;BME280;46564;53.096;8.246;2022-11-15T19:50:01;100245.00;;;11.12;83.56
60715;BME280;46564;53.096;8.246;2022-11-15T19:55:02;100248.50;;;11.09;83.27
60715;BME280;46564;53.096;8.246;2022-11-15T20:00:04;100244.97;;;11.04;83.34
60715;BME280;46564;53.096;8.246;2022-11-15T20:05:08;100235.34;;;11.05;83.12
60715;BME280;46564;53.096;8.246;2022-11-15T20:10:15;100239.75;;;11.06;83.01
60715;BME280;46564;53.096;8.246;2022-11-15T20:15:21;100225.75;;;11.01;82.91
60715;BME280;46564;53.096;8.246;2022-11-15T20:20:23;100223.97;;;10.98;82.86
60715;BME280;46564;53.096;8.246;2022-11-15T20:25:24;100223.97;;;10.95;83.00
60715;BME280;46564;53.096;8.246;2022-11-15T20:30:25;100216.13;;;10.98;82.90
60715;BME280;46564;53.096;8.246;2022-11-15T20:35:27;100224.00;;;11.00;82.73
60715;BME280;46564;53.096;8.246;2022-11-15T20:40:28;100219.59;;;10.97;82.83
60715;BME280;46564;53.096;8.246;2022-11-15T20:45:30;100206.50;;;10.99;82.55
60715;BME280;46564;53.096;8.246;2022-11-15T20:50:32;100207.41;;;10.99;82.41
60715;BME280;46564;53.096;8.246;2022-11-15T20:55:45;100195.19;;;11.03;82.42
60715;BME280;46564;53.096;8.246;2022-11-15T21:00:54;100197.81;;;11.04;82.05
60715;BME280;46564;53.096;8.246;2022-11-15T21:05:56;100193.41;;;11.00;81.91
60715;BME280;46564;53.096;8.246;2022-11-15T21:10:58;100182.91;;;10.97;81.88
60715;BME280;46564;53.096;8.246;2022-11-15T21:16:18;100175.06;;;10.97;81.85
60715;BME280;46564;53.096;8.246;2022-11-15T21:21:20;100182.06;;;10.96;81.86
60715;BME280;46564;53.096;8.246;2022-11-15T21:26:22;100167.22;;;11.03;81.78
60715;BME280;46564;53.096;8.246;2022-11-15T21:31:23;100170.75;;;11.02;81.47
60715;BME280;46564;53.096;8.246;2022-11-15T21:36:25;100165.47;;;10.96;81.47
60715;BME280;46564;53.096;8.246;2022-11-15T21:41:26;100163.72;;;10.95;81.44
60715;BME280;46564;53.096;8.246;2022-11-15T21:46:29;100163.72;;;10.95;81.52
60715;BME280;46564;53.096;8.246;2022-11-15T21:51:30;100155.84;;;10.92;81.45
60715;BME280;46564;53.096;8.246;2022-11-15T21:56:32;100152.38;;;10.94;81.43
60715;BME280;46564;53.096;8.246;2022-11-15T22:01:34;100150.63;;;11.00;81.41
60715;BME280;46564;53.096;8.246;2022-11-15T22:06:53;100147.13;;;10.91;81.38
60715;BME280;46564;53.096;8.246;2022-11-15T22:11:55;100135.75;;;10.91;81.38
60715;BME280;46564;53.096;8.246;2022-11-15T22:16:56;100136.59;;;10.87;81.47
60715;BME280;46564;53.096;8.246;2022-11-15T22:21:58;100126.13;;;10.90;81.46
60715;BME280;46564;53.096;8.246;2022-11-15T22:27:00;100124.44;;;10.96;81.53
60715;BME280;46564;53.096;8.246;2022-11-15T22:32:01;100114.78;;;10.94;81.59
60715;BME280;46564;53.096;8.246;2022-11-15T22:37:03;100113.06;;;10.93;81.60
60715;BME280;46564;53.096;8.246;2022-11-15T22:42:21;100117.41;;;10.91;81.49
60715;BME280;46564;53.096;8.246;2022-11-15T22:47:24;100100.81;;;10.86;81.71
60715;BME280;46564;53.096;8.246;2022-11-15T22:52:26;100106.91;;;10.83;81.82
60715;BME280;46564;53.096;8.246;2022-11-15T22:57:27;100108.69;;;10.89;81.89
60715;BME280;46564;53.096;8.246;2022-11-15T23:02:29;100096.41;;;10.83;81.90
60715;BME280;46564;53.096;8.246;2022-11-15T23:07:31;100095.56;;;10.83;81.82
60715;BME280;46564;53.096;8.246;2022-11-15T23:12:34;100100.78;;;10.79;82.11
60715;BME280;46564;53.096;8.246;2022-11-15T23:17:54;100095.56;;;10.84;82.14
60715;BME280;46564;53.096;8.246;2022-11-15T23:22:58;100093.78;;;10.78;82.10
60715;BME280;46564;53.096;8.246;2022-11-15T23:28:03;100092.91;;;10.76;82.14
60715;BME280;46564;53.096;8.246;2022-11-15T23:33:04;100085.06;;;10.78;82.27
60715;BME280;46564;53.096;8.246;2022-11-15T23:38:25;100077.19;;;10.75;82.51
60715;BME280;46564;53.096;8.246;2022-11-15T23:43:26;100086.75;;;10.71;82.23
60715;BME280;46564;53.096;8.246;2022-11-15T23:48:28;100078.91;;;10.76;82.18
60715;BME280;46564;53.096;8.246;2022-11-15T23:53:30;100078.94;;;10.77;82.25
60715;BME280;46564;53.096;8.246;2022-11-15T23:58:31;100066.72;;;10.73;81.97
